Time;durP1;ratioP1;P1;durP2;ratioP2;P2;SDS_P1;SDS_P2;PMS_P1;PMS_P2;Temp;Humidity;BMP_temperature;BMP_pressure;BME280_temperature;BME280_humidity;BME280_pressure;Samples;Min_cycle;Max_cycle;Signal;HPM_P1;HPM_P2
2021/07/20 00:00:30;;;;;;;7.67;4.30;;;18.90;96.60;;;;;;5031781;28;20474;-66
2021/07/20 00:02:58;;;;;;;6.47;4.53;;;18.80;96.60;;;;;;5031173;28;20437;-66
2021/07/20 00:05:27;;;;;;;6.77;4.87;;;18.70;96.60;;;;;;5031521;28;20437;-67
2021/07/20 00:07:56;;;;;;;6.00;4.60;;;18.70;96.60;;;;;;5031717;28;20438;-67
2021/07/20 00:10:27;;;;;;;10.13;5.07;;;18.60;96.60;;;;;;5031469;28;20436;-66
2021/07/20 00:12:55;;;;;;;6.30;5.00;;;18.60;96.80;;;;;;5031712;28;20461;-66
2021/07/20 00:15:24;;;;;;;8.30;5.40;;;18.50;96.90;;;;;;5031632;28;20481;-66
2021/07/20 00:17:54;;;;;;;7.47;4.50;;;18.50;96.90;;;;;;5030906;28;20438;-66
2021/07/20 00:20:27;;;;;;;9.10;5.00;;;18.50;96.80;;;;;;5031485;28;20855;-66
2021/07/20 00:22:54;;;;;;;7.13;5.00;;;18.40;97.20;;;;;;5031275;28;20438;-66
2021/07/20 00:25:22;;;;;;;6.33;4.33;;;18.40;97.40;;;;;;5035514;28;20858;-66
2021/07/20 00:27:50;;;;;;;5.90;4.50;;;18.40;97.40;;;;;;5031883;28;20946;-66
2021/07/20 00:30:17;;;;;;;4.90;4.30;;;18.30;97.30;;;;;;5043577;28;20445;-66
2021/07/20 00:32:45;;;;;;;6.73;4.63;;;18.30;97.40;;;;;;5051747;28;20882;-66
2021/07/20 00:35:13;;;;;;;5.40;4.27;;;18.30;97.50;;;;;;5037252;28;20571;-67
2021/07/20 00:37:41;;;;;;;7.10;5.40;;;18.30;97.60;;;;;;5031731;28;20482;-66
2021/07/20 00:40:11;;;;;;;9.43;5.40;;;18.30;97.70;;;;;;5045245;28;20437;-67
2021/07/20 00:42:38;;;;;;;7.77;4.83;;;18.30;97.70;;;;;;5035714;28;20477;-66
2021/07/20 00:45:09;;;;;;;7.87;4.40;;;18.30;97.70;;;;;;5046703;28;20441;-66
2021/07/20 00:47:36;;;;;;;8.80;4.77;;;18.30;97.70;;;;;;5055257;28;20448;-66
2021/07/20 00:50:04;;;;;;;5.60;3.73;;;18.20;97.60;;;;;;5043710;28;20461;-66
2021/07/20 00:52:31;;;;;;;7.50;4.10;;;18.20;97.50;;;;;;5035141;28;20519;-66
2021/07/20 00:54:58;;;;;;;15.80;4.43;;;18.10;97.70;;;;;;5044541;28;20476;-67
2021/07/20 00:57:26;;;;;;;6.27;4.17;;;18.10;97.90;;;;;;5045580;28;20473;-66
2021/07/20 00:59:55;;;;;;;6.30;4.50;;;18.00;97.90;;;;;;5035073;28;20474;-66
2021/07/20 01:02:28;;;;;;;8.80;4.60;;;18.00;97.90;;;;;;5042271;28;20436;-66
2021/07/20 01:04:55;;;;;;;5.87;4.70;;;18.00;97.90;;;;;;5053419;28;20498;-66
2021/07/20 01:07:23;;;;;;;5.30;3.73;;;18.00;97.80;;;;;;5054815;28;20476;-66
2021/07/20 01:09:51;;;;;;;7.33;4.63;;;18.00;97.90;;;;;;5047733;28;20438;-66
2021/07/20 01:12:21;;;;;;;5.30;3.93;;;18.00;98.00;;;;;;5035760;28;20936;-67
2021/07/20 01:14:50;;;;;;;7.10;4.30;;;18.00;98.00;;;;;;5052362;28;20633;-67
2021/07/20 01:17:17;;;;;;;5.63;4.03;;;18.00;98.00;;;;;;5052843;28;20437;-67
2021/07/20 01:19:51;;;;;;;4.57;3.93;;;18.00;98.00;;;;;;5034653;28;21087;-67
2021/07/20 01:22:23;;;;;;;5.30;4.00;;;17.90;98.10;;;;;;5049287;28;20562;-67
2021/07/20 01:24:52;;;;;;;5.87;3.70;;;17.90;97.70;;;;;;5054467;28;20487;-67
2021/07/20 01:27:19;;;;;;;5.43;4.27;;;17.80;97.50;;;;;;5052504;28;20502;-67
2021/07/20 01:29:48;;;;;;;5.17;3.83;;;17.70;97.20;;;;;;5045183;28;20442;-68
2021/07/20 01:32:15;;;;;;;5.47;4.03;;;17.70;98.00;;;;;;5034563;28;20766;-67
2021/07/20 01:34:45;;;;;;;5.93;3.87;;;17.70;97.90;;;;;;5045166;28;20486;-68
2021/07/20 01:37:14;;;;;;;7.10;5.30;;;17.60;98.10;;;;;;5054127;28;20469;-67
2021/07/20 01:39:43;;;;;;;5.73;4.70;;;17.50;98.30;;;;;;5042489;28;20842;-67
2021/07/20 01:42:12;;;;;;;9.03;4.20;;;17.50;97.90;;;;;;5034366;28;20495;-67
2021/07/20 01:44:39;;;;;;;7.20;4.43;;;17.50;98.10;;;;;;5042591;28;20503;-67
2021/07/20 01:47:07;;;;;;;7.20;4.67;;;17.50;98.20;;;;;;5037345;28;20488;-67
2021/07/20 01:49:36;;;;;;;6.00;3.60;;;17.50;98.30;;;;;;5042450;28;20441;-67
2021/07/20 01:52:03;;;;;;;5.37;3.70;;;17.50;98.30;;;;;;5053980;28;20490;-67
2021/07/20 01:54:37;;;;;;;6.30;4.70;;;17.50;98.30;;;;;;5045174;28;20492;-68
2021/07/20 01:57:05;;;;;;;6.27;4.53;;;17.40;98.30;;;;;;5033908;28;20484;-67
2021/07/20 01:59:34;;;;;;;4.97;3.70;;;17.40;98.30;;;;;;5041540;28;20837;-68
2021/07/20 02:02:07;;;;;;;7.00;4.07;;;17.40;98.30;;;;;;5045433;28;20924;-67
2021/07/20 02:08:10;;;;;;;5.93;4.43;;;17.40;98.20;;;;;;5033851;28;20434;-67
2021/07/20 02:10:20;;;;;;;6.27;4.77;;;17.30;98.10;;;;;;5053724;28;20428;-67
2021/07/20 02:12:48;;;;;;;4.70;3.60;;;17.30;98.50;;;;;;5039911;28;20441;-68
2021/07/20 02:15:18;;;;;;;6.87;5.07;;;17.30;98.30;;;;;;5053482;28;20491;-68
2021/07/20 02:17:48;;;;;;;5.33;4.83;;;17.30;98.30;;;;;;5048264;28;20434;-67
2021/07/20 02:20:19;;;;;;;5.07;4.27;;;17.30;98.80;;;;;;5033582;28;20476;-67
2021/07/20 02:22:47;;;;;;;5.07;4.20;;;17.30;98.40;;;;;;5048637;28;20518;-67
2021/07/20 02:25:15;;;;;;;6.07;4.03;;;17.30;98.30;;;;;;5053381;28;20551;-67
2021/07/20 02:27:44;;;;;;;5.47;3.50;;;17.30;98.40;;;;;;5038431;28;20500;-67
2021/07/20 02:30:14;;;;;;;4.63;3.67;;;17.30;98.30;;;;;;5033502;28;20473;-67
2021/07/20 02:32:45;;;;;;;7.00;4.30;;;17.30;98.30;;;;;;5045430;28;20464;-67
2021/07/20 02:35:18;;;;;;;4.83;3.40;;;17.20;98.40;;;;;;5038518;28;20469;-67
2021/07/20 02:37:46;;;;;;;5.80;3.83;;;17.20;98.70;;;;;;5033070;28;21034;-67
2021/07/20 02:40:14;;;;;;;6.33;4.20;;;17.20;98.80;;;;;;5045732;28;20578;-67
2021/07/20 02:42:42;;;;;;;5.40;4.10;;;17.10;98.80;;;;;;5053001;28;20469;-67
2021/07/20 02:45:11;;;;;;;7.83;4.23;;;17.20;98.70;;;;;;5035671;28;20474;-68
2021/07/20 02:47:39;;;;;;;4.40;3.97;;;17.10;98.80;;;;;;5033009;28;20438;-67
2021/07/20 02:50:09;;;;;;;4.83;3.50;;;17.20;99.00;;;;;;5044987;28;20524;-67
2021/07/20 02:52:37;;;;;;;5.40;3.63;;;17.20;98.70;;;;;;5032957;28;20450;-67
2021/07/20 02:55:05;;;;;;;7.40;4.30;;;17.20;98.50;;;;;;5047667;28;20931;-68
2021/07/20 02:57:33;;;;;;;6.30;3.43;;;17.10;98.50;;;;;;5052800;28;20490;-67
2021/07/20 03:00:01;;;;;;;5.13;3.70;;;17.20;98.30;;;;;;5038241;28;20476;-68
2021/07/20 03:02:29;;;;;;;3.93;3.17;;;17.10;98.20;;;;;;5032094;28;20503;-67
2021/07/20 03:04:56;;;;;;;5.10;3.30;;;17.10;98.40;;;;;;5045498;28;20445;-67
2021/07/20 03:07:27;;;;;;;4.70;3.10;;;17.10;98.40;;;;;;5039764;28;20807;-67
2021/07/20 03:09:56;;;;;;;4.93;4.00;;;17.00;98.50;;;;;;5032747;28;20473;-67
2021/07/20 03:12:26;;;;;;;4.53;3.37;;;17.00;98.70;;;;;;5043913;28;20440;-67
2021/07/20 03:14:55;;;;;;;4.23;3.20;;;17.00;99.00;;;;;;5048915;28;20438;-67
2021/07/20 03:17:25;;;;;;;6.40;4.50;;;17.00;99.00;;;;;;5032670;28;20573;-67
2021/07/20 03:19:53;;;;;;;7.23;4.27;;;17.00;99.10;;;;;;5034696;28;20465;-67
2021/07/20 03:22:25;;;;;;;5.07;4.40;;;17.00;99.30;;;;;;5049816;28;20434;-67
2021/07/20 03:24:55;;;;;;;4.30;3.70;;;17.10;99.40;;;;;;5032684;28;21071;-67
2021/07/20 03:27:22;;;;;;;5.83;4.00;;;17.10;99.30;;;;;;5033621;28;20486;-67
2021/07/20 03:29:51;;;;;;;5.73;4.40;;;17.20;99.20;;;;;;5052392;28;20480;-69
2021/07/20 03:32:20;;;;;;;4.93;4.13;;;17.20;99.20;;;;;;5046653;28;20798;-67
2021/07/20 03:34:49;;;;;;;5.13;4.07;;;17.20;99.30;;;;;;5032321;28;20439;-67
2021/07/20 03:37:17;;;;;;;3.90;3.50;;;17.20;99.30;;;;;;5036719;28;20476;-68
2021/07/20 03:39:47;;;;;;;5.53;3.50;;;17.20;99.10;;;;;;5039249;28;20503;-67
2021/07/20 03:42:14;;;;;;;4.53;4.00;;;17.20;99.30;;;;;;5036072;28;20502;-68
2021/07/20 03:44:42;;;;;;;4.43;3.47;;;17.20;99.20;;;;;;5052352;28;20444;-67
2021/07/20 03:47:10;;;;;;;5.47;4.33;;;17.30;99.40;;;;;;5049365;28;20506;-67
2021/07/20 03:49:39;;;;;;;4.93;4.20;;;17.20;99.30;;;;;;5032403;28;20434;-67
2021/07/20 03:52:07;;;;;;;5.00;4.03;;;17.20;99.50;;;;;;5033380;28;20849;-67
2021/07/20 03:54:35;;;;;;;5.67;4.20;;;17.30;99.70;;;;;;5050256;28;20440;-67
2021/07/20 03:57:05;;;;;;;8.00;4.10;;;17.30;99.70;;;;;;5032157;28;20494;-67
2021/07/20 03:59:35;;;;;;;9.30;4.90;;;17.30;99.60;;;;;;5031895;28;20481;-70
2021/07/20 04:02:05;;;;;;;6.67;4.73;;;17.30;99.70;;;;;;5031861;28;20460;-68
2021/07/20 04:04:35;;;;;;;9.40;5.77;;;17.30;99.70;;;;;;5032461;28;20504;-67
2021/07/20 04:07:03;;;;;;;4.93;4.43;;;17.20;99.40;;;;;;5052135;28;20437;-67
2021/07/20 04:09:31;;;;;;;5.50;4.43;;;17.10;99.80;;;;;;5052353;28;20490;-67
2021/07/20 04:11:58;;;;;;;10.23;4.63;;;17.20;99.50;;;;;;5044158;28;20445;-67
2021/07/20 04:14:28;;;;;;;7.00;4.33;;;17.10;99.60;;;;;;5056032;28;20837;-67
2021/07/20 04:16:55;;;;;;;4.93;3.80;;;17.10;99.70;;;;;;5037648;28;20555;-67
2021/07/20 04:19:22;;;;;;;6.37;4.67;;;17.10;99.90;;;;;;5035899;28;20497;-67
2021/07/20 04:21:50;;;;;;;6.17;4.50;;;17.10;99.90;;;;;;5052490;28;20429;-67
2021/07/20 04:24:18;;;;;;;6.10;4.73;;;17.20;99.90;;;;;;5055597;28;20483;-68
2021/07/20 04:26:46;;;;;;;7.30;4.43;;;17.20;99.90;;;;;;5040165;28;20516;-67
2021/07/20 04:29:13;;;;;;;12.33;4.90;;;17.20;99.90;;;;;;5054672;28;20855;-67
2021/07/20 04:31:43;;;;;;;7.83;5.23;;;17.20;99.90;;;;;;5055844;28;20997;-67
2021/07/20 04:34:13;;;;;;;6.47;4.97;;;17.20;99.90;;;;;;5040993;28;20838;-67
2021/07/20 04:36:41;;;;;;;7.90;6.33;;;17.30;99.90;;;;;;5037972;28;20515;-67
2021/07/20 04:39:10;;;;;;;9.77;5.97;;;17.30;99.90;;;;;;5055588;28;20491;-67
2021/07/20 04:41:37;;;;;;;7.50;5.27;;;17.30;99.90;;;;;;5053821;28;20447;-67
2021/07/20 04:44:05;;;;;;;8.60;6.60;;;17.40;99.90;;;;;;5044251;28;20429;-67
2021/07/20 04:46:32;;;;;;;6.30;5.13;;;17.50;99.90;;;;;;5054894;28;20528;-67
2021/07/20 04:49:03;;;;;;;7.27;5.70;;;17.60;99.90;;;;;;5035680;28;20499;-67
2021/07/20 04:51:32;;;;;;;7.50;5.00;;;17.70;99.90;;;;;;5035605;28;20434;-69
2021/07/20 04:54:00;;;;;;;8.37;5.60;;;17.70;99.90;;;;;;5035347;28;20912;-68
2021/07/20 04:56:27;;;;;;;6.70;4.97;;;17.80;99.90;;;;;;5035538;28;20493;-67
2021/07/20 04:58:54;;;;;;;9.07;6.17;;;17.80;99.90;;;;;;5051110;28;20444;-67
2021/07/20 05:01:21;;;;;;;6.97;6.03;;;17.90;99.90;;;;;;5037908;28;20438;-67
2021/07/20 05:03:49;;;;;;;7.53;5.43;;;17.90;99.90;;;;;;5035236;28;20448;-67
2021/07/20 05:06:19;;;;;;;8.17;6.03;;;18.00;99.90;;;;;;5051778;28;20498;-67
2021/07/20 05:11:37;;;;;;;9.20;5.20;;;18.20;99.90;;;;;;5034837;28;20445;-66
2021/07/20 05:14:04;;;;;;;8.17;5.10;;;18.30;99.90;;;;;;5034423;28;20434;-67
2021/07/20 05:16:34;;;;;;;7.73;5.40;;;18.40;99.90;;;;;;5038289;28;20482;-67
2021/07/20 05:19:02;;;;;;;8.00;6.07;;;18.40;99.90;;;;;;5035507;28;20470;-66
2021/07/20 05:21:31;;;;;;;7.60;5.57;;;18.50;99.90;;;;;;5034972;28;20789;-66
2021/07/20 05:23:59;;;;;;;9.53;6.00;;;18.60;99.90;;;;;;5034222;28;20492;-68
2021/07/20 05:26:28;;;;;;;9.07;6.00;;;18.60;99.50;;;;;;5034635;28;20446;-67
2021/07/20 05:28:57;;;;;;;10.47;5.00;;;18.70;99.50;;;;;;5032748;28;20484;-67
2021/07/20 05:31:27;;;;;;;8.17;5.37;;;18.70;99.20;;;;;;5033593;28;20520;-66
2021/07/20 05:33:56;;;;;;;8.23;6.03;;;18.80;99.20;;;;;;5034235;28;20441;-69
2021/07/20 05:36:23;;;;;;;7.93;6.50;;;18.80;99.40;;;;;;5038303;28;20517;-66
2021/07/20 05:38:51;;;;;;;8.07;6.17;;;18.90;99.50;;;;;;5034096;28;21027;-66
2021/07/20 05:41:18;;;;;;;7.30;5.97;;;18.90;99.40;;;;;;5035373;28;20465;-66
2021/07/20 05:43:47;;;;;;;9.50;6.67;;;19.00;99.30;;;;;;5035096;28;20925;-67
2021/07/20 05:46:14;;;;;;;8.37;6.27;;;19.10;99.30;;;;;;5033986;28;20445;-66
2021/07/20 05:48:46;;;;;;;9.50;6.27;;;19.10;99.10;;;;;;5034230;28;20499;-66
2021/07/20 05:51:16;;;;;;;7.57;6.23;;;19.20;98.80;;;;;;5034298;28;20446;-67
2021/07/20 05:53:43;;;;;;;8.60;5.90;;;19.30;99.00;;;;;;5033683;28;20438;-67
2021/07/20 05:56:12;;;;;;;8.17;5.77;;;19.40;98.80;;;;;;5033972;28;20508;-67
2021/07/20 05:58:39;;;;;;;6.43;5.27;;;19.50;98.50;;;;;;5033022;28;20831;-66
2021/07/20 06:01:09;;;;;;;10.33;6.37;;;19.70;98.60;;;;;;5033757;28;20500;-66
2021/07/20 06:03:40;;;;;;;10.73;6.50;;;19.80;98.50;;;;;;5047104;28;20468;-66
2021/07/20 06:06:08;;;;;;;8.73;6.17;;;19.90;98.10;;;;;;5033240;28;20437;-66
2021/07/20 06:08:36;;;;;;;11.00;6.63;;;20.00;98.20;;;;;;5033381;28;20470;-66
2021/07/20 06:11:08;;;;;;;8.43;6.30;;;20.20;98.20;;;;;;5033901;28;20448;-66
2021/07/20 06:13:38;;;;;;;10.37;6.73;;;20.40;97.90;;;;;;5032175;28;20445;-67
2021/07/20 06:16:06;;;;;;;9.37;6.10;;;20.50;97.70;;;;;;5032877;28;20469;-66
2021/07/20 06:18:36;;;;;;;9.70;5.97;;;20.60;97.00;;;;;;5032778;28;20527;-67
2021/07/20 06:21:07;;;;;;;11.00;7.00;;;20.80;96.70;;;;;;5033129;28;20438;-67
2021/07/20 06:23:38;;;;;;;8.77;5.93;;;20.90;96.30;;;;;;5033222;28;20860;-68
2021/07/20 06:26:05;;;;;;;10.07;6.50;;;21.10;96.10;;;;;;5033738;28;20520;-67
2021/07/20 06:28:32;;;;;;;10.80;7.30;;;21.20;95.70;;;;;;5033515;28;20478;-67
2021/07/20 06:31:01;;;;;;;10.63;7.30;;;21.30;95.20;;;;;;5033611;28;20513;-68
2021/07/20 06:33:30;;;;;;;10.80;6.77;;;21.30;94.70;;;;;;5043060;28;20519;-70
2021/07/20 06:35:57;;;;;;;9.97;7.30;;;21.40;94.40;;;;;;5037063;28;20492;-67
2021/07/20 06:38:24;;;;;;;13.23;6.77;;;21.50;94.00;;;;;;5050292;28;20901;-67
2021/07/20 06:40:54;;;;;;;9.30;7.60;;;21.60;93.80;;;;;;5037355;28;20532;-67
2021/07/20 06:43:21;;;;;;;9.70;6.90;;;21.70;93.50;;;;;;5032787;28;20462;-67
2021/07/20 06:45:49;;;;;;;9.60;7.47;;;21.80;93.20;;;;;;5044271;28;20509;-67
2021/07/20 06:48:20;;;;;;;14.17;7.43;;;21.80;92.60;;;;;;5049615;28;20479;-67
2021/07/20 06:50:48;;;;;;;7.43;6.30;;;21.90;92.30;;;;;;5033438;28;20444;-67
2021/07/20 06:53:16;;;;;;;11.90;7.30;;;21.90;92.10;;;;;;5040013;28;20464;-67
2021/07/20 06:55:49;;;;;;;9.30;6.60;;;21.90;91.50;;;;;;5050020;28;20439;-67
2021/07/20 06:58:18;;;;;;;12.77;8.43;;;21.80;91.40;;;;;;5031010;28;20572;-67
2021/07/20 07:00:48;;;;;;;9.13;7.67;;;21.90;91.30;;;;;;5032209;28;20472;-66
2021/07/20 07:03:23;;;;;;;11.00;7.03;;;21.90;91.60;;;;;;5041300;28;20524;-68
2021/07/20 07:05:51;;;;;;;9.93;6.90;;;22.10;92.00;;;;;;5033380;28;20525;-66
2021/07/20 07:08:22;;;;;;;11.63;7.77;;;22.20;92.00;;;;;;5041915;28;20442;-67
2021/07/20 07:10:50;;;;;;;11.87;7.60;;;22.30;92.40;;;;;;5045343;28;20880;-67
2021/07/20 07:13:18;;;;;;;9.30;8.23;;;22.50;91.80;;;;;;5047991;28;20530;-67
2021/07/20 07:15:46;;;;;;;11.60;7.60;;;22.70;91.20;;;;;;5040435;28;20437;-66
2021/07/20 07:18:24;;;;;;;9.20;6.90;;;22.80;91.20;;;;;;5049374;28;20487;-69
2021/07/20 07:20:53;;;;;;;10.93;7.40;;;23.00;90.90;;;;;;5032535;28;20439;-66
2021/07/20 07:23:22;;;;;;;9.57;6.53;;;23.20;90.80;;;;;;5032172;28;20445;-66
2021/07/20 07:25:58;;;;;;;8.83;7.00;;;23.30;91.00;;;;;;5032058;28;20833;-66
2021/07/20 07:28:27;;;;;;;10.63;7.17;;;23.40;90.00;;;;;;5045073;28;20476;-67
2021/07/20 07:30:59;;;;;;;8.47;6.67;;;23.50;88.80;;;;;;5048327;28;20437;-67
2021/07/20 07:33:27;;;;;;;15.90;7.73;;;23.60;89.60;;;;;;5036069;28;20438;-66
2021/07/20 07:35:54;;;;;;;8.73;6.80;;;23.60;89.70;;;;;;5031920;28;20430;-66
2021/07/20 07:38:25;;;;;;;9.10;6.53;;;23.70;90.30;;;;;;5032141;28;20485;-67
2021/07/20 07:40:54;;;;;;;10.60;7.57;;;23.80;89.60;;;;;;5041679;28;20773;-67
2021/07/20 07:43:23;;;;;;;8.67;7.30;;;23.80;87.50;;;;;;5032638;28;20504;-66
2021/07/20 07:45:52;;;;;;;11.90;7.17;;;23.90;87.80;;;;;;5031665;28;20434;-66
2021/07/20 07:48:22;;;;;;;8.87;7.00;;;23.90;87.50;;;;;;5034461;28;20446;-66
2021/07/20 07:50:51;;;;;;;12.60;8.90;;;24.00;87.80;;;;;;5036660;28;20442;-66
2021/07/20 07:53:18;;;;;;;8.90;6.87;;;24.10;87.10;;;;;;5036135;28;20507;-67
2021/07/20 07:55:46;;;;;;;8.03;6.50;;;24.20;87.00;;;;;;5036053;28;20438;-67
2021/07/20 07:58:15;;;;;;;9.10;7.30;;;24.30;86.70;;;;;;5035984;28;21904;-67
2021/07/20 08:00:44;;;;;;;8.60;6.80;;;24.50;85.80;;;;;;5035959;28;20436;-67
2021/07/20 08:03:13;;;;;;;9.73;8.60;;;24.50;83.20;;;;;;5034923;28;20471;-67
2021/07/20 08:05:42;;;;;;;8.70;6.67;;;24.50;80.90;;;;;;5035550;28;20970;-67
2021/07/20 08:08:12;;;;;;;11.23;8.20;;;24.50;78.40;;;;;;5049609;28;20497;-67
2021/07/20 08:10:43;;;;;;;9.90;7.07;;;24.30;80.90;;;;;;5035900;28;20492;-67
2021/07/20 08:13:13;;;;;;;7.73;6.93;;;24.30;81.30;;;;;;5036361;28;20441;-66
2021/07/20 08:15:40;;;;;;;11.40;7.50;;;24.50;84.10;;;;;;5040066;28;20447;-67
2021/07/20 08:18:08;;;;;;;8.43;7.00;;;24.50;82.90;;;;;;5049759;28;20473;-67
2021/07/20 08:20:36;;;;;;;8.00;6.63;;;24.50;81.00;;;;;;5035870;28;20525;-67
2021/07/20 08:23:03;;;;;;;10.10;7.17;;;24.60;81.70;;;;;;5036873;28;20436;-67
2021/07/20 08:25:35;;;;;;;11.70;7.50;;;24.70;81.80;;;;;;5036135;28;20492;-67
2021/07/20 08:28:06;;;;;;;8.50;6.67;;;24.80;82.70;;;;;;5040434;28;20438;-67
2021/07/20 08:30:37;;;;;;;9.67;6.90;;;24.90;81.90;;;;;;5055993;28;20445;-67
2021/07/20 08:33:07;;;;;;;8.77;7.50;;;25.10;78.60;;;;;;5046155;28;20929;-66
2021/07/20 08:35:36;;;;;;;11.33;7.07;;;25.10;77.70;;;;;;5051214;28;20933;-67
2021/07/20 08:38:08;;;;;;;10.43;7.80;;;25.10;76.80;;;;;;5055275;28;20572;-67
2021/07/20 08:40:51;;;;;;;10.27;6.53;;;25.30;78.10;;;;;;5053574;28;20444;-67
2021/07/20 08:43:28;;;;;;;9.17;7.40;;;25.50;75.50;;;;;;5055655;28;20437;-66
2021/07/20 08:46:17;;;;;;;7.67;6.17;;;25.70;76.90;;;;;;5046785;28;20445;-66
2021/07/20 08:48:51;;;;;;;7.97;6.80;;;25.90;76.00;;;;;;5036653;28;20954;-67
2021/07/20 08:51:35;;;;;;;8.73;6.97;;;26.00;74.10;;;;;;5047014;28;20437;-66
2021/07/20 08:54:07;;;;;;;12.30;6.87;;;26.10;74.30;;;;;;5055362;28;20432;-67
2021/07/20 08:56:41;;;;;;;8.70;7.43;;;26.20;73.70;;;;;;5042327;28;20476;-67
2021/07/20 08:59:09;;;;;;;10.80;7.30;;;26.20;71.90;;;;;;5034097;28;20492;-67
2021/07/20 09:01:47;;;;;;;9.63;7.10;;;26.20;71.60;;;;;;5036076;28;20445;-67
2021/07/20 09:04:20;;;;;;;12.63;8.00;;;26.30;73.00;;;;;;5035527;28;20445;-67
2021/07/20 09:06:51;;;;;;;10.87;7.77;;;26.40;70.60;;;;;;5042182;28;20496;-67
2021/07/20 09:09:24;;;;;;;7.80;6.67;;;26.50;71.20;;;;;;5035119;28;20442;-67
2021/07/20 09:11:57;;;;;;;9.63;6.70;;;26.70;68.60;;;;;;5048906;28;20436;-67
2021/07/20 09:14:30;;;;;;;11.60;7.40;;;26.80;67.90;;;;;;5043450;28;20991;-67
2021/07/20 09:17:04;;;;;;;9.80;6.73;;;27.00;68.00;;;;;;5035103;28;20443;-70
2021/07/20 09:19:38;;;;;;;9.83;7.73;;;27.20;65.00;;;;;;5034763;28;21025;-67
2021/07/20 09:22:11;;;;;;;7.70;6.70;;;27.40;67.30;;;;;;5034779;28;20511;-67
2021/07/20 09:24:54;;;;;;;9.80;7.17;;;27.60;64.00;;;;;;5034644;28;20433;-67
2021/07/20 09:27:33;;;;;;;12.77;8.17;;;27.80;62.60;;;;;;5034942;28;20998;-67
2021/07/20 09:30:07;;;;;;;13.37;7.83;;;27.90;63.90;;;;;;5034567;28;20525;-67
2021/07/20 09:32:45;;;;;;;9.17;6.57;;;27.90;62.40;;;;;;5034835;28;20842;-67
2021/07/20 09:35:21;;;;;;;8.50;6.53;;;27.90;64.60;;;;;;5034342;28;20449;-66
2021/07/20 09:38:08;;;;;;;8.40;6.87;;;28.00;63.30;;;;;;5035192;28;20901;-67
2021/07/20 09:40:44;;;;;;;8.10;7.00;;;28.20;62.10;;;;;;5048455;28;20479;-68
2021/07/20 09:43:46;;;;;;;10.27;7.67;;;28.10;59.40;;;;;;5040517;28;20768;-67
2021/07/20 09:46:20;;;;;;;9.20;7.90;;;28.20;59.10;;;;;;5034445;28;20525;-67
2021/07/20 09:48:51;;;;;;;11.17;6.80;;;28.30;59.90;;;;;;5034606;28;20435;-66
2021/07/20 09:51:36;;;;;;;9.53;8.27;;;28.40;60.50;;;;;;5036275;28;20534;-67
2021/07/20 09:54:15;;;;;;;8.93;7.20;;;28.50;62.30;;;;;;5048870;28;20515;-66
2021/07/20 09:57:20;;;;;;;12.23;7.90;;;28.80;59.90;;;;;;5047331;28;20437;-67
2021/07/20 10:00:01;;;;;;;14.30;7.50;;;28.90;57.50;;;;;;5050883;28;21404;-68
2021/07/20 10:02:34;;;;;;;11.70;8.07;;;28.90;58.10;;;;;;5036898;28;20472;-67
2021/07/20 10:05:11;;;;;;;9.77;7.77;;;28.90;56.90;;;;;;5050256;28;20487;-67
2021/07/20 10:07:42;;;;;;;10.50;8.33;;;28.90;57.70;;;;;;5042802;28;20512;-67
2021/07/20 10:10:15;;;;;;;10.03;8.00;;;29.00;58.90;;;;;;5035559;28;20536;-67
2021/07/20 10:13:02;;;;;;;8.60;6.73;;;29.10;58.10;;;;;;5032879;28;20532;-67
2021/07/20 10:15:43;;;;;;;11.97;8.23;;;29.30;58.30;;;;;;5044213;28;20520;-68
2021/07/20 10:18:18;;;;;;;13.87;7.83;;;29.40;57.30;;;;;;5031547;28;20580;-67
2021/07/20 10:20:51;;;;;;;10.07;8.97;;;29.50;58.30;;;;;;5033515;28;20993;-67
2021/07/20 10:23:23;;;;;;;11.10;8.43;;;29.60;56.50;;;;;;5050348;28;20476;-66
2021/07/20 10:25:59;;;;;;;16.77;8.63;;;29.60;55.70;;;;;;5038025;28;20436;-67
2021/07/20 10:28:30;;;;;;;10.20;8.23;;;29.50;53.00;;;;;;5042146;28;20447;-67
2021/07/20 10:31:05;;;;;;;11.73;8.50;;;29.50;54.40;;;;;;5030392;28;20452;-68
2021/07/20 10:33:38;;;;;;;10.00;8.63;;;29.60;55.90;;;;;;5036924;28;20528;-70
2021/07/20 10:36:09;;;;;;;18.03;7.97;;;29.70;52.10;;;;;;5047617;28;20429;-67
2021/07/20 10:38:42;;;;;;;7.83;5.60;;;29.80;54.10;;;;;;5049775;28;20512;-67
2021/07/20 10:41:16;;;;;;;10.63;6.17;;;29.80;55.40;;;;;;5044812;28;20817;-67
2021/07/20 10:43:50;;;;;;;9.90;7.10;;;29.80;54.30;;;;;;5049080;28;20436;-68
2021/07/20 10:46:21;;;;;;;11.90;7.80;;;29.90;55.40;;;;;;5046211;28;20447;-66
2021/07/20 10:48:53;;;;;;;9.70;7.60;;;29.90;52.50;;;;;;5048242;28;20441;-67
2021/07/20 10:51:26;;;;;;;14.83;8.33;;;30.00;54.40;;;;;;5047934;28;20446;-67
2021/07/20 10:54:00;;;;;;;10.13;8.10;;;30.10;54.40;;;;;;5049018;28;20433;-66
2021/07/20 10:56:33;;;;;;;8.93;8.03;;;30.20;53.30;;;;;;5048222;28;20977;-67
2021/07/20 10:59:09;;;;;;;9.73;8.37;;;30.20;50.60;;;;;;5036279;28;20476;-68
2021/07/20 11:01:50;;;;;;;10.90;8.33;;;30.10;50.80;;;;;;5048460;28;20494;-67
2021/07/20 11:04:29;;;;;;;12.80;8.30;;;30.10;51.90;;;;;;5049073;28;20448;-67
2021/07/20 11:06:57;;;;;;;11.63;10.33;;;30.00;52.00;;;;;;5035420;28;20480;-67
2021/07/20 11:09:27;;;;;;;10.40;8.93;;;30.00;51.80;;;;;;5031213;28;20545;-67
2021/07/20 11:11:59;;;;;;;12.47;9.33;;;30.00;52.40;;;;;;5031398;28;20511;-68
2021/07/20 11:14:30;;;;;;;11.90;9.97;;;29.90;51.60;;;;;;5031318;28;20464;-66
2021/07/20 11:17:00;;;;;;;14.50;9.07;;;29.90;52.70;;;;;;5031409;28;20788;-67
2021/07/20 11:19:30;;;;;;;12.50;9.00;;;29.90;51.90;;;;;;5039811;28;20487;-67
2021/07/20 11:21:59;;;;;;;12.80;9.87;;;30.00;51.90;;;;;;5044776;28;20936;-67
2021/07/20 11:24:28;;;;;;;13.60;9.07;;;29.90;52.20;;;;;;5031222;28;20513;-67
2021/07/20 11:26:57;;;;;;;10.80;9.20;;;29.90;52.20;;;;;;5034211;28;20858;-67
2021/07/20 11:29:25;;;;;;;12.10;10.07;;;29.90;51.90;;;;;;5048045;28;20439;-67
2021/07/20 11:31:55;;;;;;;15.60;9.77;;;29.90;51.90;;;;;;5047959;28;20439;-67
2021/07/20 11:34:28;;;;;;;11.60;8.90;;;29.90;51.30;;;;;;5050010;28;20494;-67
2021/07/20 11:36:59;;;;;;;11.63;8.77;;;29.90;51.30;;;;;;5038559;28;20447;-68
2021/07/20 11:39:33;;;;;;;11.37;9.50;;;29.80;51.60;;;;;;5031547;28;20879;-68
2021/07/20 11:42:08;;;;;;;10.13;8.70;;;29.80;51.90;;;;;;5043370;28;20440;-67
2021/07/20 11:44:46;;;;;;;14.37;9.60;;;29.80;51.60;;;;;;5045944;28;20460;-68
2021/07/20 11:47:20;;;;;;;12.80;10.03;;;29.70;52.30;;;;;;5033321;28;20441;-69
2021/07/20 11:50:03;;;;;;;14.20;10.03;;;29.70;51.80;;;;;;5045586;28;20441;-67
2021/07/20 11:52:38;;;;;;;11.07;8.80;;;29.70;51.80;;;;;;5047710;28;20449;-67
2021/07/20 11:55:10;;;;;;;15.40;10.23;;;29.60;51.80;;;;;;5048740;28;20870;-67
2021/07/20 11:58:00;;;;;;;10.77;9.00;;;29.60;51.80;;;;;;5034682;28;20453;-68
2021/07/20 12:00:52;;;;;;;10.27;9.17;;;29.70;51.50;;;;;;5046452;28;20429;-67
2021/07/20 12:03:24;;;;;;;11.77;9.80;;;29.70;51.30;;;;;;5026164;28;20441;-67
2021/07/20 12:06:16;;;;;;;11.07;9.97;;;29.70;50.80;;;;;;5045120;28;20907;-68
2021/07/20 12:08:59;;;;;;;11.93;9.50;;;29.70;50.80;;;;;;5034813;28;20443;-67
2021/07/20 12:11:29;;;;;;;14.20;10.90;;;29.60;51.10;;;;;;5029869;28;20833;-67
2021/07/20 12:14:02;;;;;;;13.30;9.80;;;29.60;50.70;;;;;;5030647;28;20850;-67
2021/07/20 12:16:32;;;;;;;12.40;10.60;;;29.60;51.20;;;;;;5030803;28;20519;-67
2021/07/20 12:19:02;;;;;;;10.43;9.33;;;29.60;51.30;;;;;;5036141;28;20490;-67
2021/07/20 12:21:32;;;;;;;12.47;10.57;;;29.60;50.60;;;;;;5043837;28;20444;-67
2021/07/20 12:24:06;;;;;;;13.47;11.20;;;29.50;51.20;;;;;;5047451;28;20527;-67
2021/07/20 12:26:37;;;;;;;13.13;10.63;;;29.50;49.20;;;;;;5048465;28;20528;-67
2021/07/20 12:29:08;;;;;;;14.57;10.70;;;29.50;50.00;;;;;;5038288;28;20540;-67
2021/07/20 12:31:36;;;;;;;10.67;9.57;;;29.40;49.90;;;;;;5030767;28;20456;-67
2021/07/20 12:34:08;;;;;;;12.13;10.33;;;29.30;50.50;;;;;;5032426;28;20488;-67
2021/07/20 12:36:37;;;;;;;12.13;10.10;;;29.30;50.80;;;;;;5048107;28;20521;-67
2021/07/20 12:39:12;;;;;;;14.77;11.27;;;29.20;50.70;;;;;;5050714;28;20566;-67
2021/07/20 12:41:44;;;;;;;9.63;8.50;;;29.10;49.70;;;;;;5034022;28;21029;-67
2021/07/20 12:44:13;;;;;;;13.07;10.90;;;29.10;51.30;;;;;;5033500;28;20943;-68
2021/07/20 12:46:40;;;;;;;26.53;14.50;;;29.10;50.90;;;;;;5034078;28;20529;-67
2021/07/20 12:49:11;;;;;;;14.83;11.80;;;29.10;51.30;;;;;;5045982;28;20432;-67
2021/07/20 12:51:47;;;;;;;16.83;11.97;;;29.10;50.30;;;;;;5037350;28;20527;-68
2021/07/20 12:54:15;;;;;;;15.53;12.40;;;29.10;51.00;;;;;;5051170;28;20504;-68
2021/07/20 12:56:42;;;;;;;21.13;11.80;;;29.20;50.60;;;;;;5038400;28;20434;-69
2021/07/20 12:59:09;;;;;;;15.23;12.47;;;29.20;50.20;;;;;;5034279;28;20492;-67
2021/07/20 13:01:37;;;;;;;14.70;12.20;;;29.20;49.20;;;;;;5045944;28;20443;-68
2021/07/20 13:04:06;;;;;;;14.80;11.40;;;29.10;49.30;;;;;;5050566;28;20454;-70
2021/07/20 13:06:39;;;;;;;14.50;11.60;;;29.10;48.80;;;;;;5049853;28;20934;-68